Terminal Aerodrome Forecast
Issued by NWS

Home | Current Version | Previous Version | Text Only | Print | Product List | Glossary Off
Versions: 1 2 3 4 5 6 7 8 9 10 11 12 13 14 15

000
FTUS43 KBIS 262328
TAFMOT
TAF
KMOT 262328Z 2700/2724 16022G30KT P6SM SCT090
     FM270200 16014KT P6SM VCTS SCT090CB BKN150
     FM270800 20006KT P6SM BKN250
     FM271900 23006KT P6SM FEW250=

USA.gov is the U.S. government's official web portal to all federal, state and local government web resources and services.